หน้าหลัก
METAR-TAF:

METAR-TAF

ท่าอากาศยาน :

เจดดะห์, ซาอุดีอาระเบีย

ละติจูด: 21-42N, ลองจิจูด: 039-11E, ความสูง: 15 ม.

การสังเกตสภาพอากาศปัจจุบัน

รายงานได้ทำขึ้นเมื่อ 52 นาทีที่แล้ว ณ เวลา 18:00 UTC
ลม 13 นอตจากเหนือ/ตะวันตกเฉียงเหนือ
อุณหภูมิ 29°C
ความชื้น 62%
ความกดอากาศ 1007 hPa
ทัศนวิสัย 10 กม. หรือมากกว่า
ไม่มีเมฆต่ำกว่า 1,500 ม. และไม่มีเมฆคิวมูโลนิมบัส

METAR: OEJN 011800Z 34013KT CAVOK 29/21 Q1007 NOSIG

เวลา: 21:52 (18:52 UTC)

การพยากรณ์

รายงานได้ทำขึ้นเมื่อ 7 ชั่วโมงและ 52 นาทีที่แล้ว ณ เวลา 11:00 UTC
การพยากรณ์มีผลตั้งแต่วันที่ 01 ณ เวลา 12 UTC จนถึงวันที่ 02 ณ เวลา 18 UTC
ลม 12 นอตจากเหนือ/ตะวันตกเฉียงเหนือ
ทัศนวิสัย 10 กม. หรือมากกว่า
ไม่มีเมฆต่ำกว่า 1,500 ม. และไม่มีเมฆคิวมูโลนิมบัส
กำลังกลายเป็น
ตั้งแต่วันที่ 01 ณ เวลา 18 UTC จนถึงวันที่ 01 ณ เวลา 20 UTC
ลม 8 นอตจากเหนือ/ตะวันออกเฉียงเหนือ

TAF: OEJN 011100Z 0112/0218 34012KT CAVOK BECMG 0118/0120 02008KT

สังเกตการณ์สภาพอากาศและพยากรณ์อากาศของสนามบินมากกว่า 4000 แห่ง (รายงาน METAR และ TAF).

สถานีที่ดูได้จะแสดงไว้ด้วยจุดสีเหลืองและสีแดงบนแผนที่.

เลื่อนเมาส์ไปเหนือจุดเพื่อดูชื่อสถานี.

แล้วคลิกเพื่อดูสังเกตการณ์และการพยากรณ์สภาพอากาศ.

ในการเปลี่ยนแผนที่: คลิกที่ปุ่มสีเขียวที่มีกากบาทสีดำเพื่อซูมเข้า; ที่ปุ่มสีเขียวที่มีขีดเพื่อซูมออก; หรือที่ลูกศรสีเขียวเพื่อไปยังแผนที่ที่อยู่ติดกัน.


METAR-TAF: